Wilson Corner, South Dakota
Current Conditions -  °F | °C
As of 4:53 PM on Friday 21 Nov 2014 (Local Time) from KHEI Reporting Station
Clear Clear  
Wind Chill: 34°   Ceiling: Unl
Heat Index: 34°   Visibility: 10mi
Dew Point: 28°   Wind: 3mph
Humidity: 79%   Direction: 250°WSW
Pressure: 29.77"   Gusts: NA
Location:  45.8748°N, 103.314°W
Report Text: KHEI 212353Z AUTO 25003KT 10SM CLR 01/M02 A2977 RMK AO2 SLP110 T00111022 10061 20011 51004
Loading
Personal Weather Stations






























Interactive Weather Map New forecast layout! Learn more

10-Day Weather Forecast

Advertisements
Track Severe Weather on mobile